Terminal Aerodrome Forecast
Issued by NWS Mobile, AL

Home | Current Version | Previous Version | Text Only | Print | Product List | Glossary On
Versions: 1 2 3 4 5 6 7 8 9 10 11 12 13 14 15
000
FTUS44 KMOB 200552
TAFMOB
TAF
KMOB 200552Z 2006/2106 32003KT P6SM BKN200
     FM201500 04004KT P6SM SKC
     FM201800 11008KT P6SM SCT030 BKN200 PROB30 2018/2024 VRB15G25KT
      4SM TSRA BKN020CB
     FM210100 VRB03KT P6SM SCT200=

USA.gov is the U.S. government's official web portal to all federal, state and local government web resources and services.